sensor_id;sensor_type;location;lat;lon;timestamp;temperature;humidity
18091;DHT22;9172;49.948;9.208;2023-09-07T00:01:08;18.90;99.90
18091;DHT22;9172;49.948;9.208;2023-09-07T00:03:38;18.80;99.90
18091;DHT22;9172;49.948;9.208;2023-09-07T00:06:08;18.80;99.90
18091;DHT22;9172;49.948;9.208;2023-09-07T00:08:38;18.80;99.90
18091;DHT22;9172;49.948;9.208;2023-09-07T00:11:08;18.70;99.90
18091;DHT22;9172;49.948;9.208;2023-09-07T00:13:37;18.60;99.90
18091;DHT22;9172;49.948;9.208;2023-09-07T00:21:21;18.70;99.90
18091;DHT22;9172;49.948;9.208;2023-09-07T00:23:50;18.70;99.90
18091;DHT22;9172;49.948;9.208;2023-09-07T00:26:18;18.60;99.90
18091;DHT22;9172;49.948;9.208;2023-09-07T00:28:47;18.70;99.90
18091;DHT22;9172;49.948;9.208;2023-09-07T00:33:53;18.80;99.90
18091;DHT22;9172;49.948;9.208;2023-09-07T00:36:21;18.80;99.90
18091;DHT22;9172;49.948;9.208;2023-09-07T00:38:50;18.90;99.90
18091;DHT22;9172;49.948;9.208;2023-09-07T00:41:19;19.00;99.90
18091;DHT22;9172;49.948;9.208;2023-09-07T00:43:47;19.00;99.90
18091;DHT22;9172;49.948;9.208;2023-09-07T00:46:16;18.90;99.90
18091;DHT22;9172;49.948;9.208;2023-09-07T00:48:45;18.90;99.90
18091;DHT22;9172;49.948;9.208;2023-09-07T00:51:14;18.90;99.90
18091;DHT22;9172;49.948;9.208;2023-09-07T00:53:42;18.90;99.90
18091;DHT22;9172;49.948;9.208;2023-09-07T00:58:47;18.80;99.90
18091;DHT22;9172;49.948;9.208;2023-09-07T01:01:16;18.70;99.90
18091;DHT22;9172;49.948;9.208;2023-09-07T01:03:45;18.70;99.90
18091;DHT22;9172;49.948;9.208;2023-09-07T01:06:16;18.70;99.90
18091;DHT22;9172;49.948;9.208;2023-09-07T01:08:48;18.70;99.90
18091;DHT22;9172;49.948;9.208;2023-09-07T01:11:18;18.80;99.90
18091;DHT22;9172;49.948;9.208;2023-09-07T01:13:47;18.80;99.90
18091;DHT22;9172;49.948;9.208;2023-09-07T01:16:16;18.90;99.90
18091;DHT22;9172;49.948;9.208;2023-09-07T01:18:45;18.90;99.90
18091;DHT22;9172;49.948;9.208;2023-09-07T01:21:15;18.90;99.90
18091;DHT22;9172;49.948;9.208;2023-09-07T01:23:45;18.90;99.90
18091;DHT22;9172;49.948;9.208;2023-09-07T01:26:15;18.90;99.90
18091;DHT22;9172;49.948;9.208;2023-09-07T01:28:43;18.90;99.90
18091;DHT22;9172;49.948;9.208;2023-09-07T01:31:12;18.90;99.90
18091;DHT22;9172;49.948;9.208;2023-09-07T01:33:41;18.90;99.90
18091;DHT22;9172;49.948;9.208;2023-09-07T01:36:09;19.00;99.90
18091;DHT22;9172;49.948;9.208;2023-09-07T01:38:38;18.90;99.90
18091;DHT22;9172;49.948;9.208;2023-09-07T01:41:07;19.00;99.90
18091;DHT22;9172;49.948;9.208;2023-09-07T01:43:37;19.00;99.90
18091;DHT22;9172;49.948;9.208;2023-09-07T01:46:05;18.90;99.90
18091;DHT22;9172;49.948;9.208;2023-09-07T01:48:34;18.90;99.90
18091;DHT22;9172;49.948;9.208;2023-09-07T01:51:03;19.00;99.90
18091;DHT22;9172;49.948;9.208;2023-09-07T01:53:32;19.00;99.90
18091;DHT22;9172;49.948;9.208;2023-09-07T01:56:00;19.10;99.90
18091;DHT22;9172;49.948;9.208;2023-09-07T02:01:06;19.10;99.90
18091;DHT22;9172;49.948;9.208;2023-09-07T02:03:34;19.10;99.90
18091;DHT22;9172;49.948;9.208;2023-09-07T02:06:04;19.10;99.90
18091;DHT22;9172;49.948;9.208;2023-09-07T02:08:32;19.00;99.90
18091;DHT22;9172;49.948;9.208;2023-09-07T02:11:01;19.00;99.90
18091;DHT22;9172;49.948;9.208;2023-09-07T02:13:30;18.90;99.90
18091;DHT22;9172;49.948;9.208;2023-09-07T02:15:58;18.80;99.90
18091;DHT22;9172;49.948;9.208;2023-09-07T02:18:28;18.80;99.90
18091;DHT22;9172;49.948;9.208;2023-09-07T02:21:02;18.70;99.90
18091;DHT22;9172;49.948;9.208;2023-09-07T02:23:31;18.60;99.90
18091;DHT22;9172;49.948;9.208;2023-09-07T02:26:00;18.50;99.90
18091;DHT22;9172;49.948;9.208;2023-09-07T02:28:28;18.40;99.90
18091;DHT22;9172;49.948;9.208;2023-09-07T02:31:02;18.40;99.90
18091;DHT22;9172;49.948;9.208;2023-09-07T02:33:31;18.30;99.90
18091;DHT22;9172;49.948;9.208;2023-09-07T02:36:00;18.40;99.90
18091;DHT22;9172;49.948;9.208;2023-09-07T02:38:29;18.30;99.90
18091;DHT22;9172;49.948;9.208;2023-09-07T02:40:58;18.20;99.90
18091;DHT22;9172;49.948;9.208;2023-09-07T02:43:26;18.10;99.90
18091;DHT22;9172;49.948;9.208;2023-09-07T02:45:55;18.10;99.90
18091;DHT22;9172;49.948;9.208;2023-09-07T02:48:23;18.10;99.90
18091;DHT22;9172;49.948;9.208;2023-09-07T02:50:52;18.10;99.90
18091;DHT22;9172;49.948;9.208;2023-09-07T02:53:21;18.10;99.90
18091;DHT22;9172;49.948;9.208;2023-09-07T02:55:50;18.10;99.90
18091;DHT22;9172;49.948;9.208;2023-09-07T02:58:18;18.10;99.90
18091;DHT22;9172;49.948;9.208;2023-09-07T03:00:47;18.00;99.90
18091;DHT22;9172;49.948;9.208;2023-09-07T03:03:15;18.10;99.90
18091;DHT22;9172;49.948;9.208;2023-09-07T03:05:44;18.10;99.90
18091;DHT22;9172;49.948;9.208;2023-09-07T03:08:13;18.10;99.90
18091;DHT22;9172;49.948;9.208;2023-09-07T03:10:41;18.10;99.90
18091;DHT22;9172;49.948;9.208;2023-09-07T03:13:11;18.10;99.90
18091;DHT22;9172;49.948;9.208;2023-09-07T03:15:40;18.10;99.90
18091;DHT22;9172;49.948;9.208;2023-09-07T03:18:08;18.10;99.90
18091;DHT22;9172;49.948;9.208;2023-09-07T03:20:37;18.10;99.90
18091;DHT22;9172;49.948;9.208;2023-09-07T03:23:05;18.10;99.90
18091;DHT22;9172;49.948;9.208;2023-09-07T03:25:34;18.10;99.90
18091;DHT22;9172;49.948;9.208;2023-09-07T03:28:04;18.10;99.90
18091;DHT22;9172;49.948;9.208;2023-09-07T03:30:33;18.10;99.90
18091;DHT22;9172;49.948;9.208;2023-09-07T03:33:02;18.10;99.90
18091;DHT22;9172;49.948;9.208;2023-09-07T03:35:31;18.20;99.90
18091;DHT22;9172;49.948;9.208;2023-09-07T03:37:59;18.30;99.90
18091;DHT22;9172;49.948;9.208;2023-09-07T03:40:28;18.30;99.90
18091;DHT22;9172;49.948;9.208;2023-09-07T03:42:56;18.30;99.90
18091;DHT22;9172;49.948;9.208;2023-09-07T03:45:25;18.40;99.90
18091;DHT22;9172;49.948;9.208;2023-09-07T03:47:54;18.30;99.90
18091;DHT22;9172;49.948;9.208;2023-09-07T03:50:22;18.30;99.90
18091;DHT22;9172;49.948;9.208;2023-09-07T03:52:51;18.30;99.90
18091;DHT22;9172;49.948;9.208;2023-09-07T03:55:20;18.30;99.90
18091;DHT22;9172;49.948;9.208;2023-09-07T03:57:48;18.20;99.90
18091;DHT22;9172;49.948;9.208;2023-09-07T04:00:18;18.30;99.90
18091;DHT22;9172;49.948;9.208;2023-09-07T04:02:47;18.30;99.90
18091;DHT22;9172;49.948;9.208;2023-09-07T04:05:16;18.30;99.90
18091;DHT22;9172;49.948;9.208;2023-09-07T04:07:44;18.30;99.90
18091;DHT22;9172;49.948;9.208;2023-09-07T04:10:14;18.30;99.90
18091;DHT22;9172;49.948;9.208;2023-09-07T04:12:42;18.30;99.90
18091;DHT22;9172;49.948;9.208;2023-09-07T04:15:11;18.30;99.90
18091;DHT22;9172;49.948;9.208;2023-09-07T04:17:40;18.40;99.90
18091;DHT22;9172;49.948;9.208;2023-09-07T04:20:10;18.40;99.90
18091;DHT22;9172;49.948;9.208;2023-09-07T04:25:17;18.50;99.90
18091;DHT22;9172;49.948;9.208;2023-09-07T04:27:46;18.50;99.90
18091;DHT22;9172;49.948;9.208;2023-09-07T04:30:15;18.60;99.90
18091;DHT22;9172;49.948;9.208;2023-09-07T04:32:44;18.60;99.90
18091;DHT22;9172;49.948;9.208;2023-09-07T04:35:12;18.70;99.90
18091;DHT22;9172;49.948;9.208;2023-09-07T04:37:43;18.70;99.90
18091;DHT22;9172;49.948;9.208;2023-09-07T04:40:12;18.70;99.90
18091;DHT22;9172;49.948;9.208;2023-09-07T04:42:41;18.70;99.90
18091;DHT22;9172;49.948;9.208;2023-09-07T04:45:11;18.70;99.90
18091;DHT22;9172;49.948;9.208;2023-09-07T04:47:39;18.70;99.90
18091;DHT22;9172;49.948;9.208;2023-09-07T04:50:10;18.70;99.90
18091;DHT22;9172;49.948;9.208;2023-09-07T04:52:38;18.70;99.90
18091;DHT22;9172;49.948;9.208;2023-09-07T04:55:09;18.70;99.90
18091;DHT22;9172;49.948;9.208;2023-09-07T04:57:37;18.70;99.90
18091;DHT22;9172;49.948;9.208;2023-09-07T05:00:08;18.70;99.90
18091;DHT22;9172;49.948;9.208;2023-09-07T05:02:37;18.70;99.90
18091;DHT22;9172;49.948;9.208;2023-09-07T05:05:08;18.70;99.90
18091;DHT22;9172;49.948;9.208;2023-09-07T05:07:37;18.70;99.90
18091;DHT22;9172;49.948;9.208;2023-09-07T05:10:07;18.70;99.90
18091;DHT22;9172;49.948;9.208;2023-09-07T05:12:37;18.70;99.90
18091;DHT22;9172;49.948;9.208;2023-09-07T05:15:07;18.70;99.90
18091;DHT22;9172;49.948;9.208;2023-09-07T05:17:36;18.70;99.90
18091;DHT22;9172;49.948;9.208;2023-09-07T05:20:08;18.70;99.90
18091;DHT22;9172;49.948;9.208;2023-09-07T05:22:37;18.70;99.90
18091;DHT22;9172;49.948;9.208;2023-09-07T05:25:08;18.70;99.90
18091;DHT22;9172;49.948;9.208;2023-09-07T05:27:38;18.70;99.90
18091;DHT22;9172;49.948;9.208;2023-09-07T05:30:08;18.70;99.90
18091;DHT22;9172;49.948;9.208;2023-09-07T05:32:37;18.70;99.90
18091;DHT22;9172;49.948;9.208;2023-09-07T05:35:08;18.60;99.90
18091;DHT22;9172;49.948;9.208;2023-09-07T05:37:37;18.60;99.90
18091;DHT22;9172;49.948;9.208;2023-09-07T05:40:09;18.50;99.90
18091;DHT22;9172;49.948;9.208;2023-09-07T05:42:38;18.60;99.90
18091;DHT22;9172;49.948;9.208;2023-09-07T05:45:09;18.60;99.90
18091;DHT22;9172;49.948;9.208;2023-09-07T05:47:38;18.60;99.90
18091;DHT22;9172;49.948;9.208;2023-09-07T05:50:08;18.60;99.90
18091;DHT22;9172;49.948;9.208;2023-09-07T05:52:36;18.60;99.90
18091;DHT22;9172;49.948;9.208;2023-09-07T05:55:07;18.60;99.90
18091;DHT22;9172;49.948;9.208;2023-09-07T05:57:36;18.50;99.90
18091;DHT22;9172;49.948;9.208;2023-09-07T06:00:08;18.50;99.90
18091;DHT22;9172;49.948;9.208;2023-09-07T06:05:14;18.50;99.90
18091;DHT22;9172;49.948;9.208;2023-09-07T06:07:44;18.60;99.90
18091;DHT22;9172;49.948;9.208;2023-09-07T06:10:14;18.60;99.90
18091;DHT22;9172;49.948;9.208;2023-09-07T06:12:44;18.60;99.90
18091;DHT22;9172;49.948;9.208;2023-09-07T06:15:13;18.60;99.90
18091;DHT22;9172;49.948;9.208;2023-09-07T06:17:42;18.60;99.90
18091;DHT22;9172;49.948;9.208;2023-09-07T06:20:11;18.60;99.90
18091;DHT22;9172;49.948;9.208;2023-09-07T06:22:40;18.70;99.90
18091;DHT22;9172;49.948;9.208;2023-09-07T06:25:09;18.70;99.90
18091;DHT22;9172;49.948;9.208;2023-09-07T06:27:38;18.80;99.90
18091;DHT22;9172;49.948;9.208;2023-09-07T06:30:08;18.80;99.90
18091;DHT22;9172;49.948;9.208;2023-09-07T06:32:37;18.80;99.90
18091;DHT22;9172;49.948;9.208;2023-09-07T06:35:07;18.80;99.90
18091;DHT22;9172;49.948;9.208;2023-09-07T06:37:36;18.80;99.90
18091;DHT22;9172;49.948;9.208;2023-09-07T06:40:08;18.80;99.90
18091;DHT22;9172;49.948;9.208;2023-09-07T06:42:37;18.80;99.90
18091;DHT22;9172;49.948;9.208;2023-09-07T06:45:08;18.80;99.90
18091;DHT22;9172;49.948;9.208;2023-09-07T06:47:37;18.80;99.90
18091;DHT22;9172;49.948;9.208;2023-09-07T06:50:06;18.90;99.90
18091;DHT22;9172;49.948;9.208;2023-09-07T06:52:35;18.90;99.90
18091;DHT22;9172;49.948;9.208;2023-09-07T06:55:05;18.90;99.90
18091;DHT22;9172;49.948;9.208;2023-09-07T06:57:34;19.00;99.90
18091;DHT22;9172;49.948;9.208;2023-09-07T07:00:05;19.10;99.90
18091;DHT22;9172;49.948;9.208;2023-09-07T07:02:34;19.10;99.90
18091;DHT22;9172;49.948;9.208;2023-09-07T07:05:03;19.20;99.90
18091;DHT22;9172;49.948;9.208;2023-09-07T07:07:32;19.30;99.90
18091;DHT22;9172;49.948;9.208;2023-09-07T07:10:00;19.40;99.90
18091;DHT22;9172;49.948;9.208;2023-09-07T07:12:30;19.50;99.90
18091;DHT22;9172;49.948;9.208;2023-09-07T07:15:02;19.50;99.90
18091;DHT22;9172;49.948;9.208;2023-09-07T07:17:30;19.60;99.90
18091;DHT22;9172;49.948;9.208;2023-09-07T07:19:59;19.70;99.90
18091;DHT22;9172;49.948;9.208;2023-09-07T07:22:27;19.80;99.90
18091;DHT22;9172;49.948;9.208;2023-09-07T07:24:56;20.00;99.90
18091;DHT22;9172;49.948;9.208;2023-09-07T07:27:26;20.10;99.90
18091;DHT22;9172;49.948;9.208;2023-09-07T07:29:55;20.20;99.90
18091;DHT22;9172;49.948;9.208;2023-09-07T07:32:24;20.30;99.90
18091;DHT22;9172;49.948;9.208;2023-09-07T07:34:52;20.50;99.90
18091;DHT22;9172;49.948;9.208;2023-09-07T07:37:21;20.60;99.90
18091;DHT22;9172;49.948;9.208;2023-09-07T07:39:49;20.80;99.90
18091;DHT22;9172;49.948;9.208;2023-09-07T07:42:18;21.00;99.90
18091;DHT22;9172;49.948;9.208;2023-09-07T07:44:48;21.10;99.90
18091;DHT22;9172;49.948;9.208;2023-09-07T07:47:16;21.10;99.90
18091;DHT22;9172;49.948;9.208;2023-09-07T07:49:45;21.20;99.90
18091;DHT22;9172;49.948;9.208;2023-09-07T07:52:13;21.30;99.90
18091;DHT22;9172;49.948;9.208;2023-09-07T07:54:42;21.40;99.90
18091;DHT22;9172;49.948;9.208;2023-09-07T07:57:11;21.60;99.90
18091;DHT22;9172;49.948;9.208;2023-09-07T07:59:39;21.70;99.90
18091;DHT22;9172;49.948;9.208;2023-09-07T08:02:08;21.90;99.90
18091;DHT22;9172;49.948;9.208;2023-09-07T08:04:36;22.00;99.90
18091;DHT22;9172;49.948;9.208;2023-09-07T08:07:05;22.00;99.90
18091;DHT22;9172;49.948;9.208;2023-09-07T08:09:36;22.10;99.90
18091;DHT22;9172;49.948;9.208;2023-09-07T08:12:05;22.10;99.90
18091;DHT22;9172;49.948;9.208;2023-09-07T08:14:34;22.20;99.90
18091;DHT22;9172;49.948;9.208;2023-09-07T08:17:03;22.30;99.90
18091;DHT22;9172;49.948;9.208;2023-09-07T08:19:32;22.40;99.90
18091;DHT22;9172;49.948;9.208;2023-09-07T08:22:00;22.50;99.90
18091;DHT22;9172;49.948;9.208;2023-09-07T08:24:31;22.60;99.90
18091;DHT22;9172;49.948;9.208;2023-09-07T08:26:59;22.50;99.90
18091;DHT22;9172;49.948;9.208;2023-09-07T08:29:28;22.50;99.90
18091;DHT22;9172;49.948;9.208;2023-09-07T08:31:58;22.60;99.90
18091;DHT22;9172;49.948;9.208;2023-09-07T08:34:29;22.60;99.90
18091;DHT22;9172;49.948;9.208;2023-09-07T08:36:59;22.70;99.90
18091;DHT22;9172;49.948;9.208;2023-09-07T08:39:27;22.90;99.90
18091;DHT22;9172;49.948;9.208;2023-09-07T08:41:57;23.00;99.90
18091;DHT22;9172;49.948;9.208;2023-09-07T08:44:26;23.10;99.90
18091;DHT22;9172;49.948;9.208;2023-09-07T08:46:56;23.20;99.90
18091;DHT22;9172;49.948;9.208;2023-09-07T08:49:25;23.30;99.90
18091;DHT22;9172;49.948;9.208;2023-09-07T08:51:58;23.30;99.90
18091;DHT22;9172;49.948;9.208;2023-09-07T08:54:26;23.50;99.90
18091;DHT22;9172;49.948;9.208;2023-09-07T08:56:57;23.60;99.90
18091;DHT22;9172;49.948;9.208;2023-09-07T08:59:25;23.60;99.90
18091;DHT22;9172;49.948;9.208;2023-09-07T09:01:57;23.60;99.90
18091;DHT22;9172;49.948;9.208;2023-09-07T09:04:27;23.70;99.90
18091;DHT22;9172;49.948;9.208;2023-09-07T09:06:55;23.70;99.90
18091;DHT22;9172;49.948;9.208;2023-09-07T09:09:25;23.80;99.90
18091;DHT22;9172;49.948;9.208;2023-09-07T09:11:54;23.80;99.90
18091;DHT22;9172;49.948;9.208;2023-09-07T09:14:22;23.90;99.90
18091;DHT22;9172;49.948;9.208;2023-09-07T09:16:52;23.90;99.90
18091;DHT22;9172;49.948;9.208;2023-09-07T09:22:07;24.00;99.90
18091;DHT22;9172;49.948;9.208;2023-09-07T09:24:36;24.10;99.90
18091;DHT22;9172;49.948;9.208;2023-09-07T09:27:05;24.10;99.90
18091;DHT22;9172;49.948;9.208;2023-09-07T09:29:34;24.30;99.90
18091;DHT22;9172;49.948;9.208;2023-09-07T09:32:05;24.40;99.90
18091;DHT22;9172;49.948;9.208;2023-09-07T09:34:36;24.50;99.90
18091;DHT22;9172;49.948;9.208;2023-09-07T09:37:12;24.60;99.90
18091;DHT22;9172;49.948;9.208;2023-09-07T09:39:36;24.70;99.90
18091;DHT22;9172;49.948;9.208;2023-09-07T09:42:05;24.80;99.90
18091;DHT22;9172;49.948;9.208;2023-09-07T09:44:35;24.90;99.90
18091;DHT22;9172;49.948;9.208;2023-09-07T09:47:05;25.00;99.90
18091;DHT22;9172;49.948;9.208;2023-09-07T09:49:34;25.10;99.90
18091;DHT22;9172;49.948;9.208;2023-09-07T09:52:04;25.20;99.90
18091;DHT22;9172;49.948;9.208;2023-09-07T09:54:35;25.20;99.90
18091;DHT22;9172;49.948;9.208;2023-09-07T09:57:04;25.10;99.90
18091;DHT22;9172;49.948;9.208;2023-09-07T09:59:32;25.10;99.90
18091;DHT22;9172;49.948;9.208;2023-09-07T10:02:03;25.20;99.90
18091;DHT22;9172;49.948;9.208;2023-09-07T10:04:33;25.20;99.90
18091;DHT22;9172;49.948;9.208;2023-09-07T10:07:02;25.40;99.90
18091;DHT22;9172;49.948;9.208;2023-09-07T10:09:34;25.40;99.90
18091;DHT22;9172;49.948;9.208;2023-09-07T10:12:10;25.50;99.90
18091;DHT22;9172;49.948;9.208;2023-09-07T10:14:40;25.60;99.90
18091;DHT22;9172;49.948;9.208;2023-09-07T10:17:08;25.70;99.90
18091;DHT22;9172;49.948;9.208;2023-09-07T10:19:37;25.70;99.90
18091;DHT22;9172;49.948;9.208;2023-09-07T10:22:07;25.70;99.90
18091;DHT22;9172;49.948;9.208;2023-09-07T10:24:36;25.50;99.90
18091;DHT22;9172;49.948;9.208;2023-09-07T10:27:07;25.50;99.90
18091;DHT22;9172;49.948;9.208;2023-09-07T10:29:46;25.60;99.90
18091;DHT22;9172;49.948;9.208;2023-09-07T10:32:15;25.80;99.90
18091;DHT22;9172;49.948;9.208;2023-09-07T10:34:43;25.90;99.90
18091;DHT22;9172;49.948;9.208;2023-09-07T10:37:13;26.00;99.90
18091;DHT22;9172;49.948;9.208;2023-09-07T10:39:42;26.10;99.90
18091;DHT22;9172;49.948;9.208;2023-09-07T10:42:21;26.00;99.90
18091;DHT22;9172;49.948;9.208;2023-09-07T10:44:51;26.00;99.90
18091;DHT22;9172;49.948;9.208;2023-09-07T10:47:20;26.10;99.90
18091;DHT22;9172;49.948;9.208;2023-09-07T10:49:49;26.20;99.90
18091;DHT22;9172;49.948;9.208;2023-09-07T10:52:18;26.30;99.90
18091;DHT22;9172;49.948;9.208;2023-09-07T10:57:32;26.30;99.90
18091;DHT22;9172;49.948;9.208;2023-09-07T11:00:05;26.40;99.90
18091;DHT22;9172;49.948;9.208;2023-09-07T11:02:36;26.40;99.90
18091;DHT22;9172;49.948;9.208;2023-09-07T11:05:05;26.50;99.90
18091;DHT22;9172;49.948;9.208;2023-09-07T11:07:35;26.30;99.90
18091;DHT22;9172;49.948;9.208;2023-09-07T11:10:09;26.40;99.90
18091;DHT22;9172;49.948;9.208;2023-09-07T11:12:38;26.50;99.90
18091;DHT22;9172;49.948;9.208;2023-09-07T11:15:10;26.60;99.90
18091;DHT22;9172;49.948;9.208;2023-09-07T11:17:39;26.70;99.90
18091;DHT22;9172;49.948;9.208;2023-09-07T11:20:09;26.70;99.90
18091;DHT22;9172;49.948;9.208;2023-09-07T11:22:38;26.80;99.90
18091;DHT22;9172;49.948;9.208;2023-09-07T11:25:08;26.90;99.90
18091;DHT22;9172;49.948;9.208;2023-09-07T11:27:39;26.80;99.90
18091;DHT22;9172;49.948;9.208;2023-09-07T11:30:10;26.90;99.90
18091;DHT22;9172;49.948;9.208;2023-09-07T11:32:38;26.90;99.90
18091;DHT22;9172;49.948;9.208;2023-09-07T11:35:10;26.90;99.90
18091;DHT22;9172;49.948;9.208;2023-09-07T11:37:39;26.90;99.90
18091;DHT22;9172;49.948;9.208;2023-09-07T11:40:10;26.90;99.90
18091;DHT22;9172;49.948;9.208;2023-09-07T11:42:40;26.90;99.90
18091;DHT22;9172;49.948;9.208;2023-09-07T11:45:10;27.00;99.90
18091;DHT22;9172;49.948;9.208;2023-09-07T11:47:40;27.10;99.90
18091;DHT22;9172;49.948;9.208;2023-09-07T11:50:09;27.00;99.90
18091;DHT22;9172;49.948;9.208;2023-09-07T11:52:38;27.00;99.90
18091;DHT22;9172;49.948;9.208;2023-09-07T11:55:08;27.00;99.90
18091;DHT22;9172;49.948;9.208;2023-09-07T11:57:37;27.10;99.90
18091;DHT22;9172;49.948;9.208;2023-09-07T12:00:08;27.00;99.90
18091;DHT22;9172;49.948;9.208;2023-09-07T12:02:39;27.00;99.90
18091;DHT22;9172;49.948;9.208;2023-09-07T12:05:08;27.00;99.90
18091;DHT22;9172;49.948;9.208;2023-09-07T12:07:37;27.00;99.90
18091;DHT22;9172;49.948;9.208;2023-09-07T12:10:08;27.00;99.90
18091;DHT22;9172;49.948;9.208;2023-09-07T12:12:37;27.10;99.90
18091;DHT22;9172;49.948;9.208;2023-09-07T12:15:08;27.10;99.90
18091;DHT22;9172;49.948;9.208;2023-09-07T12:17:36;27.10;99.90
18091;DHT22;9172;49.948;9.208;2023-09-07T12:20:07;27.00;99.90
18091;DHT22;9172;49.948;9.208;2023-09-07T12:22:37;27.00;99.90
18091;DHT22;9172;49.948;9.208;2023-09-07T12:25:07;27.10;99.90
18091;DHT22;9172;49.948;9.208;2023-09-07T12:27:36;27.10;99.90
18091;DHT22;9172;49.948;9.208;2023-09-07T12:30:06;27.10;99.90
18091;DHT22;9172;49.948;9.208;2023-09-07T12:32:37;27.00;99.90
18091;DHT22;9172;49.948;9.208;2023-09-07T12:35:07;27.00;99.90
18091;DHT22;9172;49.948;9.208;2023-09-07T12:37:36;27.00;99.90
18091;DHT22;9172;49.948;9.208;2023-09-07T12:40:07;27.00;99.90
18091;DHT22;9172;49.948;9.208;2023-09-07T12:42:45;26.90;99.90
18091;DHT22;9172;49.948;9.208;2023-09-07T12:45:13;26.90;99.90
18091;DHT22;9172;49.948;9.208;2023-09-07T12:47:42;26.90;99.90
18091;DHT22;9172;49.948;9.208;2023-09-07T12:50:12;26.90;99.90
18091;DHT22;9172;49.948;9.208;2023-09-07T12:52:41;26.90;99.90
18091;DHT22;9172;49.948;9.208;2023-09-07T12:55:10;26.90;99.90
18091;DHT22;9172;49.948;9.208;2023-09-07T12:57:39;26.90;99.90
18091;DHT22;9172;49.948;9.208;2023-09-07T13:00:10;26.90;99.90
18091;DHT22;9172;49.948;9.208;2023-09-07T13:02:39;27.00;99.90
18091;DHT22;9172;49.948;9.208;2023-09-07T13:05:08;27.00;99.90
18091;DHT22;9172;49.948;9.208;2023-09-07T13:07:37;27.10;99.90
18091;DHT22;9172;49.948;9.208;2023-09-07T13:10:07;27.10;99.90
18091;DHT22;9172;49.948;9.208;2023-09-07T13:12:36;27.10;99.90
18091;DHT22;9172;49.948;9.208;2023-09-07T13:15:06;27.10;99.80
18091;DHT22;9172;49.948;9.208;2023-09-07T13:17:35;27.00;99.90
18091;DHT22;9172;49.948;9.208;2023-09-07T13:20:06;27.00;99.90
18091;DHT22;9172;49.948;9.208;2023-09-07T13:22:35;27.00;99.90
18091;DHT22;9172;49.948;9.208;2023-09-07T13:25:05;27.00;99.90
18091;DHT22;9172;49.948;9.208;2023-09-07T13:27:34;27.00;99.90
18091;DHT22;9172;49.948;9.208;2023-09-07T13:30:05;27.00;99.90
18091;DHT22;9172;49.948;9.208;2023-09-07T13:32:35;27.00;99.90
18091;DHT22;9172;49.948;9.208;2023-09-07T13:35:05;27.00;99.90
18091;DHT22;9172;49.948;9.208;2023-09-07T13:37:34;26.90;99.90
18091;DHT22;9172;49.948;9.208;2023-09-07T13:40:04;26.90;99.90
18091;DHT22;9172;49.948;9.208;2023-09-07T13:42:34;26.90;99.90
18091;DHT22;9172;49.948;9.208;2023-09-07T13:45:04;26.90;99.90
18091;DHT22;9172;49.948;9.208;2023-09-07T13:47:33;26.90;99.90
18091;DHT22;9172;49.948;9.208;2023-09-07T13:50:02;26.90;99.90
18091;DHT22;9172;49.948;9.208;2023-09-07T13:52:30;27.00;99.90
18091;DHT22;9172;49.948;9.208;2023-09-07T13:54:59;26.90;99.50
18091;DHT22;9172;49.948;9.208;2023-09-07T13:57:28;27.00;99.20
18091;DHT22;9172;49.948;9.208;2023-09-07T13:59:56;27.00;99.70
18091;DHT22;9172;49.948;9.208;2023-09-07T14:02:25;27.00;99.80
18091;DHT22;9172;49.948;9.208;2023-09-07T14:04:53;27.00;99.90
18091;DHT22;9172;49.948;9.208;2023-09-07T14:07:22;27.00;98.80
18091;DHT22;9172;49.948;9.208;2023-09-07T14:09:53;26.90;98.60
18091;DHT22;9172;49.948;9.208;2023-09-07T14:12:22;26.90;99.40
18091;DHT22;9172;49.948;9.208;2023-09-07T14:14:50;26.90;99.90
18091;DHT22;9172;49.948;9.208;2023-09-07T14:17:19;26.90;99.90
18091;DHT22;9172;49.948;9.208;2023-09-07T14:19:48;26.90;99.90
18091;DHT22;9172;49.948;9.208;2023-09-07T14:22:16;26.90;99.90
18091;DHT22;9172;49.948;9.208;2023-09-07T14:24:45;26.90;99.90
18091;DHT22;9172;49.948;9.208;2023-09-07T14:27:13;27.00;99.90
18091;DHT22;9172;49.948;9.208;2023-09-07T14:29:42;27.00;99.70
18091;DHT22;9172;49.948;9.208;2023-09-07T14:32:10;27.00;99.70
18091;DHT22;9172;49.948;9.208;2023-09-07T14:34:39;27.00;99.90
18091;DHT22;9172;49.948;9.208;2023-09-07T14:37:08;27.00;99.50
18091;DHT22;9172;49.948;9.208;2023-09-07T14:39:36;27.00;98.80
18091;DHT22;9172;49.948;9.208;2023-09-07T14:42:05;27.00;99.50
18091;DHT22;9172;49.948;9.208;2023-09-07T14:44:36;27.00;99.30
18091;DHT22;9172;49.948;9.208;2023-09-07T14:47:05;27.00;99.20
18091;DHT22;9172;49.948;9.208;2023-09-07T14:49:35;27.00;99.60
18091;DHT22;9172;49.948;9.208;2023-09-07T14:52:04;27.00;99.70
18091;DHT22;9172;49.948;9.208;2023-09-07T14:54:33;27.00;99.90
18091;DHT22;9172;49.948;9.208;2023-09-07T14:57:02;27.00;99.90
18091;DHT22;9172;49.948;9.208;2023-09-07T14:59:30;27.00;99.70
18091;DHT22;9172;49.948;9.208;2023-09-07T15:01:59;26.90;98.60
18091;DHT22;9172;49.948;9.208;2023-09-07T15:04:28;26.90;99.00
18091;DHT22;9172;49.948;9.208;2023-09-07T15:06:56;26.90;98.20
18091;DHT22;9172;49.948;9.208;2023-09-07T15:09:25;26.90;98.80
18091;DHT22;9172;49.948;9.208;2023-09-07T15:11:54;26.80;98.80
18091;DHT22;9172;49.948;9.208;2023-09-07T15:14:22;26.80;98.60
18091;DHT22;9172;49.948;9.208;2023-09-07T15:16:51;26.80;98.80
18091;DHT22;9172;49.948;9.208;2023-09-07T15:19:20;26.70;98.30
18091;DHT22;9172;49.948;9.208;2023-09-07T15:21:49;26.80;98.70
18091;DHT22;9172;49.948;9.208;2023-09-07T15:24:18;26.70;98.70
18091;DHT22;9172;49.948;9.208;2023-09-07T15:26:47;26.70;99.10
18091;DHT22;9172;49.948;9.208;2023-09-07T15:29:16;26.70;99.10
18091;DHT22;9172;49.948;9.208;2023-09-07T15:31:44;26.70;98.60
18091;DHT22;9172;49.948;9.208;2023-09-07T15:34:13;26.70;99.10
18091;DHT22;9172;49.948;9.208;2023-09-07T15:36:42;26.70;99.40
18091;DHT22;9172;49.948;9.208;2023-09-07T15:39:10;26.70;99.20
18091;DHT22;9172;49.948;9.208;2023-09-07T15:41:39;26.70;99.10
18091;DHT22;9172;49.948;9.208;2023-09-07T15:44:07;26.70;98.90
18091;DHT22;9172;49.948;9.208;2023-09-07T15:46:36;26.60;99.10
18091;DHT22;9172;49.948;9.208;2023-09-07T15:49:08;26.60;99.20
18091;DHT22;9172;49.948;9.208;2023-09-07T15:51:37;26.60;99.00
18091;DHT22;9172;49.948;9.208;2023-09-07T15:54:06;26.60;98.90
18091;DHT22;9172;49.948;9.208;2023-09-07T15:56:35;26.60;99.20
18091;DHT22;9172;49.948;9.208;2023-09-07T15:59:03;26.60;99.40
18091;DHT22;9172;49.948;9.208;2023-09-07T16:01:32;26.60;99.40
18091;DHT22;9172;49.948;9.208;2023-09-07T16:04:00;26.60;99.30
18091;DHT22;9172;49.948;9.208;2023-09-07T16:06:29;26.50;98.50
18091;DHT22;9172;49.948;9.208;2023-09-07T16:08:57;26.50;98.50
18091;DHT22;9172;49.948;9.208;2023-09-07T16:11:26;26.60;98.50
18091;DHT22;9172;49.948;9.208;2023-09-07T16:13:56;26.50;98.70
18091;DHT22;9172;49.948;9.208;2023-09-07T16:16:25;26.50;99.10
18091;DHT22;9172;49.948;9.208;2023-09-07T16:18:53;26.40;99.10
18091;DHT22;9172;49.948;9.208;2023-09-07T16:21:22;26.40;99.00